createdAt,value
2022-09-21T00:01:05.481Z,10.03
2022-09-21T00:02:02.232Z,9.92
2022-09-21T00:02:58.943Z,9.99
2022-09-21T00:03:58.350Z,9.90
2022-09-21T00:04:55.115Z,10.28
2022-09-21T00:05:51.866Z,9.83
2022-09-21T00:06:48.544Z,9.54
2022-09-21T00:07:45.262Z,10.04
2022-09-21T00:08:42.987Z,10.29
2022-09-21T00:09:39.693Z,10.40
2022-09-21T00:10:36.470Z,10.49
2022-09-21T00:11:35.546Z,9.05
2022-09-21T00:12:32.611Z,10.32
2022-09-21T00:13:29.346Z,10.68
2022-09-21T00:14:26.015Z,10.32
2022-09-21T00:15:23.057Z,10.00
2022-09-21T00:16:20.483Z,9.96
2022-09-21T00:17:17.198Z,9.62
2022-09-21T00:18:14.129Z,9.77
2022-09-21T00:19:12.038Z,9.09
2022-09-21T00:20:09.095Z,10.21
2022-09-21T00:21:11.162Z,8.85
2022-09-21T00:22:08.013Z,9.88
2022-09-21T00:23:04.777Z,10.17
2022-09-21T00:24:02.694Z,9.73
2022-09-21T00:24:59.606Z,9.62
2022-09-21T00:26:15.590Z,9.73
2022-09-21T00:27:12.357Z,9.92
2022-09-21T00:28:09.125Z,10.11
2022-09-21T00:29:06.894Z,9.87
2022-09-21T00:30:06.859Z,9.82
2022-09-21T00:31:05.298Z,9.66
2022-09-21T00:32:02.019Z,9.57
2022-09-21T00:32:58.765Z,9.66
2022-09-21T00:33:55.661Z,9.72
2022-09-21T00:34:52.952Z,9.42
2022-09-21T00:35:49.617Z,9.88
2022-09-21T00:36:46.323Z,9.84
2022-09-21T00:37:43.071Z,8.95
2022-09-21T00:38:40.840Z,9.34
2022-09-21T00:39:37.502Z,9.60
2022-09-21T00:40:34.210Z,9.54
2022-09-21T00:41:33.271Z,9.91
2022-09-21T00:42:33.670Z,9.79
2022-09-21T00:43:33.420Z,8.46
2022-09-21T00:44:33.193Z,9.54
2022-09-21T00:45:31.173Z,9.42
2022-09-21T00:46:31.212Z,9.31
2022-09-21T00:47:33.359Z,9.23
2022-09-21T00:48:31.010Z,8.65
2022-09-21T00:49:29.246Z,8.89
2022-09-21T00:50:26.342Z,9.30
2022-09-21T00:51:23.069Z,9.39
2022-09-21T00:52:22.912Z,9.50
2022-09-21T00:53:20.741Z,9.27
2022-09-21T00:54:25.515Z,9.47
2022-09-21T00:55:38.085Z,9.45
2022-09-21T00:56:37.169Z,8.40
2022-09-21T00:57:35.910Z,8.77
2022-09-21T00:58:43.883Z,8.82
2022-09-21T00:59:45.061Z,8.51
2022-09-21T01:00:43.559Z,8.35
2022-09-21T01:01:40.257Z,8.74
2022-09-21T01:02:38.706Z,8.35
2022-09-21T01:03:35.429Z,8.41
2022-09-21T01:04:33.110Z,7.72
2022-09-21T01:05:29.842Z,8.56
2022-09-21T01:06:27.219Z,8.52
2022-09-21T01:07:30.022Z,8.04
2022-09-21T01:08:28.966Z,8.23
2022-09-21T01:09:27.573Z,8.33
2022-09-21T01:10:25.922Z,8.50
2022-09-21T01:11:55.041Z,8.55
2022-09-21T01:13:13.516Z,8.33
2022-09-21T01:14:26.731Z,8.38
2022-09-21T01:15:38.344Z,8.18
2022-09-21T01:16:48.839Z,8.18
2022-09-21T01:18:22.515Z,8.10
2022-09-21T01:19:36.277Z,8.13
2022-09-21T01:20:55.649Z,8.14
2022-09-21T01:22:22.715Z,8.16
2022-09-21T01:23:34.575Z,8.05
2022-09-21T01:24:51.029Z,8.01
2022-09-21T01:26:06.406Z,8.12
2022-09-21T01:27:34.832Z,8.22
2022-09-21T01:28:50.099Z,8.11
2022-09-21T01:29:59.989Z,8.35
2022-09-21T01:31:06.022Z,8.32
2022-09-21T01:32:16.721Z,8.52
2022-09-21T01:33:32.279Z,8.68
2022-09-21T01:34:54.653Z,8.20
2022-09-21T01:35:59.867Z,7.70
2022-09-21T01:37:03.334Z,9.05
2022-09-21T01:38:07.044Z,9.20
2022-09-21T01:39:11.415Z,9.01
2022-09-21T01:40:13.749Z,8.72
2022-09-21T01:41:16.416Z,8.45
2022-09-21T01:42:16.358Z,8.18
2022-09-21T01:43:25.410Z,8.22
2022-09-21T01:44:29.050Z,8.78
2022-09-21T01:45:33.620Z,8.83
2022-09-21T01:46:34.004Z,8.66
2022-09-21T01:47:31.742Z,8.38
2022-09-21T01:48:35.240Z,8.32
2022-09-21T01:49:38.378Z,8.31
2022-09-21T01:50:45.304Z,8.02
2022-09-21T01:51:58.907Z,8.06
2022-09-21T01:53:22.644Z,8.10
2022-09-21T01:54:27.045Z,8.17
2022-09-21T01:55:30.693Z,8.12
2022-09-21T01:56:36.256Z,8.07
2022-09-21T01:57:58.013Z,7.64
2022-09-21T01:59:09.611Z,8.01
2022-09-21T02:00:08.296Z,7.86
2022-09-21T02:01:11.923Z,7.71
2022-09-21T02:02:19.208Z,6.98
2022-09-21T02:03:29.118Z,8.05
2022-09-21T02:04:26.355Z,8.13
2022-09-21T02:05:26.451Z,8.24
2022-09-21T02:06:27.074Z,8.23
2022-09-21T02:07:25.122Z,8.30
2022-09-21T02:08:21.964Z,8.30
2022-09-21T02:09:19.337Z,8.17
2022-09-21T02:10:26.712Z,8.20
2022-09-21T02:11:24.141Z,8.20
2022-09-21T02:12:20.816Z,8.25
2022-09-21T02:13:21.553Z,8.27
2022-09-21T02:14:24.109Z,8.61
2022-09-21T02:15:32.643Z,8.87
2022-09-21T02:17:02.218Z,8.75
2022-09-21T02:17:58.876Z,8.95
2022-09-21T02:19:41.670Z,9.07
2022-09-21T02:20:54.464Z,8.41
2022-09-21T02:22:10.111Z,9.02
2022-09-21T02:23:23.332Z,8.89
2022-09-21T02:24:25.690Z,9.18
2022-09-21T02:26:02.229Z,8.91
2022-09-21T02:26:59.002Z,8.84
2022-09-21T02:28:10.702Z,8.79
2022-09-21T02:29:25.136Z,8.78
2022-09-21T02:30:25.454Z,8.45
2022-09-21T02:31:43.158Z,8.45
2022-09-21T02:32:58.678Z,8.59
2022-09-21T02:34:30.737Z,8.77
2022-09-21T02:36:04.934Z,8.43
2022-09-21T02:37:17.002Z,8.38
2022-09-21T02:38:56.081Z,8.63
2022-09-21T02:40:09.933Z,8.59
2022-09-21T02:41:16.010Z,8.38
2022-09-21T02:42:20.500Z,8.22
2022-09-21T02:43:41.465Z,8.17
2022-09-21T02:44:52.851Z,7.62
2022-09-21T02:45:57.183Z,8.30
2022-09-21T02:47:01.833Z,7.01
2022-09-21T02:48:10.856Z,8.11
2022-09-21T02:49:16.400Z,7.19
2022-09-21T02:50:25.907Z,7.71
2022-09-21T02:51:36.348Z,7.79
2022-09-21T02:52:35.696Z,8.26
2022-09-21T02:53:37.801Z,8.11
2022-09-21T02:54:39.121Z,8.10
2022-09-21T02:55:36.889Z,8.04
2022-09-21T02:56:34.904Z,7.94
2022-09-21T02:57:31.605Z,7.86
2022-09-21T02:58:31.025Z,8.59
2022-09-21T02:59:28.333Z,8.37
2022-09-21T03:00:25.255Z,8.25
2022-09-21T03:01:26.062Z,7.86
2022-09-21T03:02:22.926Z,8.04
2022-09-21T03:03:23.277Z,8.05
2022-09-21T03:04:20.275Z,7.95
2022-09-21T03:05:17.005Z,7.82
2022-09-21T03:06:13.991Z,7.82
2022-09-21T03:07:10.701Z,7.82
2022-09-21T03:08:07.372Z,7.87
2022-09-21T03:09:04.418Z,7.93
2022-09-21T03:10:01.565Z,7.97
2022-09-21T03:10:58.339Z,7.94
2022-09-21T03:11:54.995Z,7.97
2022-09-21T03:12:51.690Z,7.94
2022-09-21T03:13:48.368Z,7.82
2022-09-21T03:14:45.052Z,7.80
2022-09-21T03:15:42.270Z,7.83
2022-09-21T03:16:39.119Z,7.86
2022-09-21T03:17:35.794Z,7.82
2022-09-21T03:18:33.306Z,7.84
2022-09-21T03:19:29.981Z,7.80
2022-09-21T03:20:26.675Z,7.94
2022-09-21T03:21:23.457Z,8.03
2022-09-21T03:22:21.276Z,8.22
2022-09-21T03:23:17.966Z,8.30
2022-09-21T03:24:34.642Z,8.32
2022-09-21T03:25:31.814Z,7.78
2022-09-21T03:26:28.526Z,7.67
2022-09-21T03:27:25.512Z,8.40
2022-09-21T03:28:23.210Z,8.35
2022-09-21T03:29:19.887Z,8.35
2022-09-21T03:30:16.626Z,8.12
2022-09-21T03:31:13.407Z,8.22
2022-09-21T03:32:10.349Z,8.17
2022-09-21T03:33:08.302Z,8.90
2022-09-21T03:34:05.105Z,8.87
2022-09-21T03:35:01.787Z,8.44
2022-09-21T03:35:58.678Z,8.22
2022-09-21T03:36:55.612Z,8.74
2022-09-21T03:37:52.841Z,8.78
2022-09-21T03:38:49.990Z,8.45
2022-09-21T03:39:47.301Z,8.21
2022-09-21T03:40:48.353Z,8.08
2022-09-21T03:41:45.282Z,8.57
2022-09-21T03:42:43.659Z,8.37
2022-09-21T03:43:40.353Z,8.54
2022-09-21T03:44:37.467Z,8.58
2022-09-21T03:45:34.142Z,8.41
2022-09-21T03:46:30.898Z,8.30
2022-09-21T03:47:29.186Z,8.13
2022-09-21T03:48:25.910Z,8.07
2022-09-21T03:49:22.594Z,7.61
2022-09-21T03:50:19.378Z,8.18
2022-09-21T03:51:16.065Z,8.08
2022-09-21T03:52:12.782Z,7.97
2022-09-21T03:53:10.348Z,8.00
2022-09-21T03:54:07.025Z,8.03
2022-09-21T03:55:07.517Z,8.03
2022-09-21T03:56:04.331Z,8.13
2022-09-21T03:57:01.032Z,8.09
2022-09-21T03:57:57.713Z,8.03
2022-09-21T03:58:54.462Z,7.22
2022-09-21T03:59:52.137Z,8.27
2022-09-21T04:00:48.831Z,8.41
2022-09-21T04:01:45.592Z,8.40
2022-09-21T04:02:42.444Z,8.10
2022-09-21T04:03:39.181Z,7.44
2022-09-21T04:04:35.860Z,8.32
2022-09-21T04:05:32.573Z,8.22
2022-09-21T04:06:29.259Z,8.20
2022-09-21T04:07:26.338Z,8.13
2022-09-21T04:08:23.313Z,8.22
2022-09-21T04:09:19.993Z,8.05
2022-09-21T04:10:20.182Z,7.38
2022-09-21T04:11:19.225Z,8.52
2022-09-21T04:12:15.947Z,8.60
2022-09-21T04:13:13.605Z,8.24
2022-09-21T04:14:11.893Z,8.35
2022-09-21T04:15:14.534Z,8.53
2022-09-21T04:16:11.416Z,8.48
2022-09-21T04:17:08.108Z,8.80
2022-09-21T04:18:05.937Z,9.15
2022-09-21T04:19:02.791Z,9.19
2022-09-21T04:19:59.889Z,9.38
2022-09-21T04:20:56.558Z,9.14
2022-09-21T04:21:53.226Z,9.05
2022-09-21T04:22:51.557Z,9.24
2022-09-21T04:23:49.953Z,9.05
2022-09-21T04:24:46.671Z,8.76
2022-09-21T04:25:43.974Z,8.64
2022-09-21T04:26:41.141Z,8.85
2022-09-21T04:27:38.285Z,9.04
2022-09-21T04:28:35.023Z,8.90
2022-09-21T04:29:31.667Z,8.88
2022-09-21T04:30:29.076Z,8.76
2022-09-21T04:31:27.120Z,8.89
2022-09-21T04:32:23.846Z,9.10
2022-09-21T04:33:22.102Z,9.11
2022-09-21T04:34:18.808Z,8.56
2022-09-21T04:35:15.698Z,9.29
2022-09-21T04:36:12.397Z,9.40
2022-09-21T04:37:13.605Z,9.68
2022-09-21T04:38:10.502Z,9.87
2022-09-21T04:39:07.212Z,9.96
2022-09-21T04:40:05.028Z,9.91
2022-09-21T04:41:03.415Z,9.71
2022-09-21T04:42:00.135Z,9.96
2022-09-21T04:42:56.900Z,10.00
2022-09-21T04:43:53.737Z,9.75
2022-09-21T04:44:51.459Z,9.94
2022-09-21T04:45:48.138Z,9.88
2022-09-21T04:46:45.044Z,9.84
2022-09-21T04:47:41.929Z,9.05
2022-09-21T04:48:39.362Z,8.87
2022-09-21T04:49:36.043Z,9.25
2022-09-21T04:50:32.714Z,9.63
2022-09-21T04:51:29.894Z,9.74
2022-09-21T04:52:26.697Z,8.90
2022-09-21T04:53:23.409Z,9.56
2022-09-21T04:54:20.099Z,8.80
2022-09-21T04:55:17.834Z,9.17
2022-09-21T04:56:15.781Z,8.73
2022-09-21T04:57:13.103Z,9.82
2022-09-21T04:58:09.832Z,9.75
2022-09-21T04:59:06.880Z,9.54
2022-09-21T05:00:05.802Z,9.66
2022-09-21T05:01:04.340Z,9.37
2022-09-21T05:02:01.063Z,9.24
2022-09-21T05:02:58.355Z,9.50
2022-09-21T05:03:55.195Z,9.57
2022-09-21T05:04:51.952Z,9.53
2022-09-21T05:05:49.802Z,9.34
2022-09-21T05:06:46.516Z,9.27
2022-09-21T05:07:43.285Z,9.10
2022-09-21T05:08:59.171Z,9.52
2022-09-21T05:10:05.047Z,9.24
2022-09-21T05:11:02.166Z,9.04
2022-09-21T05:11:58.858Z,8.96
2022-09-21T05:12:55.533Z,8.08
2022-09-21T05:13:52.283Z,9.40
2022-09-21T05:14:49.206Z,8.96
2022-09-21T05:15:45.927Z,9.34
2022-09-21T05:16:42.630Z,9.28
2022-09-21T05:17:41.291Z,8.88
2022-09-21T05:18:37.997Z,9.26
2022-09-21T05:19:35.081Z,9.30
2022-09-21T05:20:31.766Z,9.32
2022-09-21T05:21:28.521Z,8.82
2022-09-21T05:22:25.162Z,9.46
2022-09-21T05:23:23.653Z,9.72
2022-09-21T05:24:20.377Z,9.61
2022-09-21T05:25:17.601Z,9.32
2022-09-21T05:26:14.336Z,9.50
2022-09-21T05:27:11.065Z,9.43
2022-09-21T05:28:08.130Z,9.42
2022-09-21T05:29:05.520Z,9.54
2022-09-21T05:30:02.598Z,8.76
2022-09-21T05:31:16.643Z,9.84
2022-09-21T05:32:31.011Z,9.41
2022-09-21T05:33:30.878Z,8.85
2022-09-21T05:34:38.137Z,9.86
2022-09-21T05:36:24.709Z,10.09
2022-09-21T05:37:40.164Z,10.28
2022-09-21T05:38:37.216Z,10.29
2022-09-21T05:39:34.161Z,10.27
2022-09-21T05:40:31.207Z,9.89
2022-09-21T05:41:28.229Z,10.25
2022-09-21T05:42:25.260Z,9.84
2022-09-21T05:43:22.295Z,9.50
2022-09-21T05:44:19.296Z,9.07
2022-09-21T05:45:18.615Z,9.69
2022-09-21T05:46:33.801Z,9.40
2022-09-21T05:47:47.610Z,9.73
2022-09-21T05:48:59.839Z,9.84
2022-09-21T05:50:15.128Z,10.18
2022-09-21T05:51:34.975Z,10.24
2022-09-21T05:52:50.089Z,10.30
2022-09-21T05:54:19.534Z,10.34
2022-09-21T05:55:29.807Z,10.52
2022-09-21T05:56:51.291Z,10.36
2022-09-21T05:58:18.891Z,10.25
2022-09-21T05:59:37.257Z,9.95
2022-09-21T06:00:47.542Z,9.84
2022-09-21T06:01:56.091Z,9.73
2022-09-21T06:03:01.751Z,9.81
2022-09-21T06:03:59.921Z,9.65
2022-09-21T06:04:59.761Z,9.68
2022-09-21T06:05:57.798Z,9.87
2022-09-21T06:06:54.601Z,9.87
2022-09-21T06:07:51.294Z,9.94
2022-09-21T06:08:48.110Z,10.02
2022-09-21T06:09:44.789Z,10.00
2022-09-21T06:10:41.657Z,10.05
2022-09-21T06:11:38.550Z,9.74
2022-09-21T06:12:35.233Z,10.33
2022-09-21T06:13:31.989Z,9.49
2022-09-21T06:14:28.682Z,10.93
2022-09-21T06:15:25.429Z,11.05
2022-09-21T06:16:22.279Z,11.13
2022-09-21T06:17:19.047Z,10.91
2022-09-21T06:18:18.116Z,11.02
2022-09-21T06:19:14.977Z,10.84
2022-09-21T06:20:11.677Z,10.90
2022-09-21T06:21:08.769Z,11.17
2022-09-21T06:22:05.468Z,11.09
2022-09-21T06:23:09.956Z,11.00
2022-09-21T06:24:06.768Z,11.24
2022-09-21T06:25:03.556Z,11.25
2022-09-21T06:26:00.343Z,10.97
2022-09-21T06:26:57.090Z,11.09
2022-09-21T06:27:53.929Z,10.35
2022-09-21T06:28:50.839Z,11.01
2022-09-21T06:29:47.599Z,11.15
2022-09-21T06:30:45.106Z,11.56
2022-09-21T06:31:41.830Z,11.32
2022-09-21T06:32:38.505Z,11.69
2022-09-21T06:33:37.728Z,11.40
2022-09-21T06:34:34.596Z,11.76
2022-09-21T06:35:34.081Z,11.11
2022-09-21T06:36:31.207Z,11.39
2022-09-21T06:37:27.879Z,11.16
2022-09-21T06:38:26.285Z,10.30
2022-09-21T06:39:23.206Z,11.58
2022-09-21T06:40:19.948Z,11.04
2022-09-21T06:41:21.031Z,11.55
2022-09-21T06:42:18.222Z,11.35
2022-09-21T06:43:14.950Z,11.32
2022-09-21T06:44:11.643Z,11.57
2022-09-21T06:45:08.890Z,11.26
2022-09-21T06:46:06.337Z,11.50
2022-09-21T06:47:03.075Z,11.65
2022-09-21T06:47:59.765Z,11.82
2022-09-21T06:48:56.563Z,11.57
2022-09-21T06:49:54.244Z,12.43
2022-09-21T06:50:51.801Z,12.42
2022-09-21T06:51:48.963Z,12.47
2022-09-21T06:52:46.386Z,11.80
2022-09-21T06:53:43.173Z,12.06
2022-09-21T06:54:40.991Z,11.71
2022-09-21T06:55:37.953Z,11.71
2022-09-21T06:56:35.706Z,11.93
2022-09-21T06:57:32.457Z,11.79
2022-09-21T06:58:30.325Z,12.10
2022-09-21T06:59:27.019Z,11.77
2022-09-21T07:00:23.747Z,10.78
2022-09-21T07:01:20.973Z,11.70
2022-09-21T07:02:17.785Z,12.19
2022-09-21T07:03:14.491Z,12.38
2022-09-21T07:04:11.218Z,12.27
2022-09-21T07:05:08.153Z,11.71
2022-09-21T07:06:06.448Z,12.39
2022-09-21T07:07:04.821Z,12.03
2022-09-21T07:08:02.422Z,11.87
2022-09-21T07:10:20.558Z,12.43
2022-09-21T07:11:17.471Z,12.26
2022-09-21T07:12:15.769Z,12.53
2022-09-21T07:13:12.506Z,12.67
2022-09-21T07:14:09.182Z,12.49
2022-09-21T07:15:07.267Z,12.39
2022-09-21T07:16:07.237Z,12.79
2022-09-21T07:17:04.717Z,12.97
2022-09-21T07:18:08.468Z,13.22
2022-09-21T07:19:12.853Z,13.04
2022-09-21T07:20:09.743Z,13.15
2022-09-21T07:21:08.976Z,12.85
2022-09-21T07:22:05.792Z,12.90
2022-09-21T07:23:19.727Z,12.56
2022-09-21T07:24:16.711Z,12.69
2022-09-21T07:25:14.396Z,12.91
2022-09-21T07:26:13.905Z,12.92
2022-09-21T07:27:10.583Z,12.81
2022-09-21T07:28:07.914Z,12.45
2022-09-21T07:29:04.697Z,13.21
2022-09-21T07:30:01.455Z,12.82
2022-09-21T07:30:59.166Z,12.98
2022-09-21T07:31:55.996Z,11.99
2022-09-21T07:32:52.687Z,13.15
2022-09-21T07:33:49.470Z,13.08
2022-09-21T07:34:46.896Z,12.89
2022-09-21T07:35:51.598Z,12.71
2022-09-21T07:36:48.377Z,12.64
2022-09-21T07:37:45.057Z,12.94
2022-09-21T07:39:00.283Z,13.05
2022-09-21T07:39:57.055Z,13.14
2022-09-21T07:40:53.824Z,11.91
2022-09-21T07:41:50.555Z,12.83
2022-09-21T07:42:47.280Z,12.70
2022-09-21T07:43:44.093Z,13.04
2022-09-21T07:44:41.542Z,12.94
2022-09-21T07:45:38.751Z,13.24
2022-09-21T07:46:39.108Z,13.45
2022-09-21T07:47:37.995Z,12.60
2022-09-21T07:48:34.872Z,13.26
2022-09-21T07:49:31.568Z,13.60
2022-09-21T07:50:28.259Z,12.50
2022-09-21T07:51:25.393Z,13.44
2022-09-21T07:52:22.199Z,12.62
2022-09-21T07:53:18.895Z,13.17
2022-09-21T07:54:15.890Z,13.15
2022-09-21T07:55:12.547Z,13.37
2022-09-21T07:56:12.701Z,13.54
2022-09-21T07:57:28.148Z,13.71
2022-09-21T07:58:43.738Z,13.02
2022-09-21T07:59:40.396Z,13.63
2022-09-21T08:00:37.393Z,13.46
2022-09-21T08:01:40.048Z,13.41
2022-09-21T08:02:36.801Z,13.10
2022-09-21T08:03:33.683Z,13.48
2022-09-21T08:04:30.374Z,13.54
2022-09-21T08:05:27.428Z,13.37
2022-09-21T08:06:26.491Z,12.97
2022-09-21T08:07:23.331Z,13.25
2022-09-21T08:08:20.863Z,13.43
2022-09-21T08:09:17.566Z,13.45
2022-09-21T08:10:14.417Z,13.36
2022-09-21T08:11:11.881Z,13.56
2022-09-21T08:12:08.997Z,13.70
2022-09-21T08:13:06.307Z,13.72
2022-09-21T08:14:03.648Z,13.86
2022-09-21T08:15:00.370Z,14.06
2022-09-21T08:16:01.623Z,14.40
2022-09-21T08:16:58.309Z,14.29
2022-09-21T08:17:54.993Z,14.37
2022-09-21T08:18:51.849Z,14.06
2022-09-21T08:19:48.538Z,14.39
2022-09-21T08:20:54.948Z,13.99
2022-09-21T08:21:57.221Z,14.39
2022-09-21T08:22:57.039Z,14.23
2022-09-21T08:23:53.858Z,14.05
2022-09-21T08:24:50.574Z,14.40
2022-09-21T08:25:48.322Z,13.94
2022-09-21T08:26:45.194Z,13.95
2022-09-21T08:27:42.564Z,14.28
2022-09-21T08:28:40.314Z,14.43
2022-09-21T08:29:37.132Z,14.38
2022-09-21T08:30:34.206Z,14.47
2022-09-21T08:31:31.163Z,13.66
2022-09-21T08:32:49.958Z,13.49
2022-09-21T08:33:44.622Z,13.22
2022-09-21T08:34:41.323Z,13.02
2022-09-21T08:35:38.147Z,14.00
2022-09-21T08:36:35.211Z,14.49
2022-09-21T08:37:33.213Z,14.59
2022-09-21T08:38:35.309Z,14.28
2022-09-21T08:39:32.030Z,14.77
2022-09-21T08:40:29.713Z,14.82
2022-09-21T08:42:04.474Z,14.81
2022-09-21T08:43:16.738Z,14.20
2022-09-21T08:44:32.458Z,14.53
2022-09-21T08:45:38.274Z,14.55
2022-09-21T08:46:38.591Z,14.50
2022-09-21T08:47:59.803Z,14.47
2022-09-21T08:49:04.023Z,13.93
2022-09-21T08:50:05.582Z,14.28
2022-09-21T08:51:08.226Z,14.10
2022-09-21T08:52:14.322Z,14.11
2022-09-21T08:53:24.561Z,14.46
2022-09-21T08:54:36.402Z,14.62
2022-09-21T08:55:33.326Z,14.82
2022-09-21T08:56:47.427Z,14.38
2022-09-21T08:57:47.637Z,14.38
2022-09-21T08:58:44.382Z,14.39
2022-09-21T08:59:47.514Z,14.44
2022-09-21T09:00:44.517Z,14.24
2022-09-21T09:02:02.923Z,14.09
2022-09-21T09:03:15.465Z,14.45
2022-09-21T09:04:39.878Z,14.29
2022-09-21T09:05:55.276Z,14.15
2022-09-21T09:06:54.586Z,14.20
2022-09-21T09:08:10.860Z,14.34
2022-09-21T09:09:16.627Z,14.36
2022-09-21T09:10:36.802Z,14.00
2022-09-21T09:11:42.300Z,14.75
2022-09-21T09:13:03.793Z,15.02
2022-09-21T09:14:12.648Z,15.02
2022-09-21T09:15:11.990Z,14.43
2022-09-21T09:16:37.072Z,14.53
2022-09-21T09:17:46.956Z,14.66
2022-09-21T09:18:55.190Z,14.42
2022-09-21T09:20:03.057Z,14.64
2022-09-21T09:21:32.241Z,14.54
2022-09-21T09:22:44.697Z,14.48
2022-09-21T09:23:48.539Z,14.40
2022-09-21T09:24:56.911Z,14.31
2022-09-21T09:26:05.066Z,14.38
2022-09-21T09:27:06.896Z,14.26
2022-09-21T09:28:26.095Z,14.29
2022-09-21T09:29:35.349Z,14.52
2022-09-21T09:30:35.767Z,14.71
2022-09-21T09:31:35.965Z,13.40
2022-09-21T09:33:07.887Z,14.27
2022-09-21T09:34:36.582Z,14.37
2022-09-21T09:36:03.866Z,13.62
2022-09-21T09:37:11.250Z,14.31
2022-09-21T09:38:26.792Z,14.44
2022-09-21T09:39:24.677Z,14.29
2022-09-21T09:40:44.905Z,14.90
2022-09-21T09:41:44.469Z,14.73
2022-09-21T09:43:11.547Z,13.94
2022-09-21T09:44:26.309Z,14.43
2022-09-21T09:45:48.631Z,14.47
2022-09-21T09:47:01.402Z,14.36
2022-09-21T09:48:08.155Z,14.51
2022-09-21T09:49:32.294Z,14.55
2022-09-21T09:50:34.089Z,14.11
2022-09-21T09:51:35.172Z,14.28
2022-09-21T09:52:33.462Z,14.40
2022-09-21T09:53:31.651Z,13.25
2022-09-21T09:54:35.089Z,14.32
2022-09-21T09:55:46.311Z,13.60
2022-09-21T09:56:44.054Z,13.40
2022-09-21T09:57:40.974Z,14.40
2022-09-21T09:58:57.536Z,13.68
2022-09-21T09:59:59.406Z,14.38
2022-09-21T10:00:58.799Z,14.42
2022-09-21T10:02:01.149Z,13.91
2022-09-21T10:02:58.945Z,13.70
2022-09-21T10:04:07.046Z,14.42
2022-09-21T10:05:06.279Z,14.48
2022-09-21T10:06:03.448Z,14.64
2022-09-21T10:07:00.902Z,14.86
2022-09-21T10:07:58.004Z,14.71
2022-09-21T10:08:54.671Z,14.43
2022-09-21T10:09:51.356Z,15.02
2022-09-21T10:10:48.329Z,15.04
2022-09-21T10:11:45.343Z,14.68
2022-09-21T10:12:46.858Z,15.28
2022-09-21T10:13:47.199Z,15.00
2022-09-21T10:14:51.561Z,15.09
2022-09-21T10:15:52.651Z,15.18
2022-09-21T10:16:55.937Z,15.61
2022-09-21T10:18:11.259Z,14.64
2022-09-21T10:19:19.034Z,15.09
2022-09-21T10:20:20.281Z,15.29
2022-09-21T10:21:27.195Z,14.91
2022-09-21T10:22:23.997Z,15.15
2022-09-21T10:23:21.038Z,14.85
2022-09-21T10:24:51.335Z,15.25
2022-09-21T10:26:01.776Z,15.45
2022-09-21T10:27:11.714Z,15.97
2022-09-21T10:28:13.796Z,14.85
2022-09-21T10:29:22.242Z,15.61
2022-09-21T10:30:30.800Z,15.49
2022-09-21T10:31:31.781Z,15.16
2022-09-21T10:32:29.294Z,15.30
2022-09-21T10:33:26.006Z,15.61
2022-09-21T10:34:23.819Z,15.16
2022-09-21T10:35:20.635Z,14.99
2022-09-21T10:36:30.040Z,14.43
2022-09-21T10:37:30.101Z,14.80
2022-09-21T10:38:28.190Z,14.86
2022-09-21T10:39:26.925Z,14.80
2022-09-21T10:40:25.356Z,14.30
2022-09-21T10:41:23.042Z,13.92
2022-09-21T10:42:20.709Z,14.68
2022-09-21T10:43:28.447Z,15.36
2022-09-21T10:44:40.387Z,15.61
2022-09-21T10:45:37.306Z,15.43
2022-09-21T10:46:35.946Z,15.47
2022-09-21T10:47:36.590Z,15.18
2022-09-21T10:48:33.607Z,15.18
2022-09-21T10:49:30.510Z,14.77
2022-09-21T10:50:52.086Z,15.10
2022-09-21T10:51:52.121Z,15.21
2022-09-21T10:52:51.535Z,14.66
2022-09-21T10:53:53.917Z,15.36
2022-09-21T10:54:56.449Z,15.36
2022-09-21T10:56:15.456Z,15.11
2022-09-21T10:57:19.478Z,15.61
2022-09-21T10:58:17.137Z,15.29
2022-09-21T10:59:21.944Z,14.99
2022-09-21T11:00:22.083Z,15.05
2022-09-21T11:01:27.847Z,15.03
2022-09-21T11:02:36.213Z,15.12
2022-09-21T11:03:50.959Z,15.15
2022-09-21T11:04:58.974Z,15.28
2022-09-21T11:06:08.978Z,15.09
2022-09-21T11:07:19.772Z,15.04
2022-09-21T11:08:33.029Z,14.35
2022-09-21T11:09:41.037Z,15.33
2022-09-21T11:10:46.337Z,15.59
2022-09-21T11:11:57.971Z,15.74
2022-09-21T11:13:33.153Z,15.32
2022-09-21T11:14:52.222Z,15.52
2022-09-21T11:15:59.977Z,15.36
2022-09-21T11:17:03.654Z,15.38
2022-09-21T11:18:07.006Z,15.49
2022-09-21T11:19:30.604Z,15.31
2022-09-21T11:20:27.320Z,15.15
2022-09-21T11:21:40.663Z,15.01
2022-09-21T11:23:03.325Z,14.96
2022-09-21T11:24:05.755Z,15.20
2022-09-21T11:25:45.827Z,15.37
2022-09-21T11:26:54.697Z,15.36
2022-09-21T11:28:02.837Z,14.69
2022-09-21T11:29:07.052Z,15.12
2022-09-21T11:30:07.303Z,15.43
2022-09-21T11:31:16.291Z,15.46
2022-09-21T11:32:33.912Z,15.67
2022-09-21T11:33:54.689Z,15.52
2022-09-21T11:35:18.654Z,15.57
2022-09-21T11:36:41.497Z,15.30
2022-09-21T11:37:51.190Z,15.61
2022-09-21T11:39:16.658Z,15.29
2022-09-21T11:40:35.677Z,15.81
2022-09-21T11:42:01.350Z,15.81
2022-09-21T11:43:08.906Z,15.67
2022-09-21T11:44:30.917Z,15.33
2022-09-21T11:45:48.364Z,15.07
2022-09-21T11:47:07.088Z,14.94
2022-09-21T11:48:35.530Z,14.90
2022-09-21T11:50:07.772Z,14.99
2022-09-21T11:51:24.054Z,14.88
2022-09-21T11:52:47.911Z,14.86
2022-09-21T11:54:20.513Z,15.11
2022-09-21T11:55:51.008Z,14.95
2022-09-21T11:57:01.251Z,14.96
2022-09-21T11:58:22.087Z,15.09
2022-09-21T11:59:31.247Z,15.07
2022-09-21T12:00:42.885Z,14.95
2022-09-21T12:01:57.362Z,14.87
2022-09-21T12:03:12.779Z,14.59
2022-09-21T12:04:18.542Z,14.57
2022-09-21T12:05:39.550Z,14.77
2022-09-21T12:06:46.288Z,14.64
2022-09-21T12:08:40.943Z,14.55
2022-09-21T12:09:45.400Z,14.80
2022-09-21T12:11:23.374Z,14.64
2022-09-21T12:12:38.185Z,14.69
2022-09-21T12:13:58.177Z,14.78
2022-09-21T12:15:33.674Z,15.13
2022-09-21T12:16:33.870Z,14.96
2022-09-21T12:17:49.750Z,14.94
2022-09-21T12:19:29.247Z,14.94
2022-09-21T12:20:53.593Z,15.12
2022-09-21T12:22:15.646Z,15.06
2022-09-21T12:23:42.804Z,14.63
2022-09-21T12:25:07.326Z,14.77
2022-09-21T12:26:06.499Z,14.94
2022-09-21T12:27:21.096Z,14.52
2022-09-21T12:28:31.394Z,14.85
2022-09-21T12:29:44.544Z,14.37
2022-09-21T12:30:47.903Z,15.14
2022-09-21T12:32:04.500Z,14.88
2022-09-21T12:33:06.592Z,14.24
2022-09-21T12:34:22.629Z,14.91
2022-09-21T12:35:26.451Z,14.86
2022-09-21T12:36:29.926Z,14.99
2022-09-21T12:37:40.505Z,14.97
2022-09-21T12:38:54.489Z,15.04
2022-09-21T12:40:05.947Z,15.00
2022-09-21T12:41:31.384Z,14.91
2022-09-21T12:42:50.897Z,14.74
2022-09-21T12:44:12.027Z,14.63
2022-09-21T12:45:29.079Z,14.83
2022-09-21T12:46:39.226Z,13.68
2022-09-21T12:47:45.941Z,14.77
2022-09-21T12:48:43.387Z,14.28
2022-09-21T12:49:46.467Z,14.77
2022-09-21T12:50:49.740Z,14.75
2022-09-21T12:51:59.228Z,14.88
2022-09-21T12:52:58.505Z,14.60
2022-09-21T12:53:58.980Z,14.67
2022-09-21T12:55:18.264Z,14.95
2022-09-21T12:56:30.215Z,14.76
2022-09-21T12:58:14.608Z,14.84
2022-09-21T12:59:25.466Z,14.23
2022-09-21T13:00:30.030Z,14.36
2022-09-21T13:01:51.354Z,14.97
2022-09-21T13:03:08.375Z,14.94
2022-09-21T13:04:13.076Z,14.93
2022-09-21T13:05:36.574Z,14.71
2022-09-21T13:07:18.165Z,14.85
2022-09-21T13:08:28.863Z,13.88
2022-09-21T13:09:28.146Z,14.58
2022-09-21T13:10:28.154Z,14.72
2022-09-21T13:11:25.303Z,14.74
2022-09-21T13:12:33.949Z,14.59
2022-09-21T13:13:35.298Z,14.88
2022-09-21T13:14:37.306Z,14.07
2022-09-21T13:15:47.525Z,14.45
2022-09-21T13:16:44.552Z,14.85
2022-09-21T13:17:41.501Z,14.11
2022-09-21T13:18:40.811Z,14.91
2022-09-21T13:19:37.772Z,14.89
2022-09-21T13:20:40.048Z,14.66
2022-09-21T13:21:36.869Z,14.70
2022-09-21T13:22:37.489Z,14.86
2022-09-21T13:23:42.371Z,14.59
2022-09-21T13:24:42.327Z,14.85
2022-09-21T13:25:39.144Z,14.59
2022-09-21T13:26:43.663Z,14.59
2022-09-21T13:28:19.743Z,14.81
2022-09-21T13:29:19.595Z,14.86
2022-09-21T13:30:32.633Z,14.58
2022-09-21T13:31:43.596Z,14.81
2022-09-21T13:32:51.788Z,13.31
2022-09-21T13:34:16.125Z,14.93
2022-09-21T13:35:50.329Z,15.04
2022-09-21T13:37:19.069Z,15.26
2022-09-21T13:38:26.168Z,15.20
2022-09-21T13:39:22.881Z,15.30
2022-09-21T13:40:19.798Z,15.29
2022-09-21T13:41:19.563Z,15.50
2022-09-21T13:42:34.749Z,15.39
2022-09-21T13:44:01.090Z,15.49
2022-09-21T13:45:04.583Z,15.71
2022-09-21T13:46:01.518Z,15.59
2022-09-21T13:46:59.169Z,14.24
2022-09-21T13:48:00.142Z,15.50
2022-09-21T13:48:58.494Z,13.70
2022-09-21T13:50:00.507Z,14.96
2022-09-21T13:51:01.569Z,15.50
2022-09-21T13:52:13.428Z,15.53
2022-09-21T13:53:29.170Z,15.29
2022-09-21T13:54:33.419Z,14.59
2022-09-21T13:55:34.634Z,15.44
2022-09-21T13:56:33.530Z,15.32